Terminal Aerodrome Forecast
Issued by NWS

Home | Current Version | Previous Version | Graphics & Text | Print | Product List | Glossary On
Versions: 1 2 3 4 5 6 7 8 9 10 11 12 13 14 15 16 17 18 19 20 21 22 23
803
FTUS42 KMHX 151316 AAA
TAFPGV
TAF AMD
KPGV 151316Z 1513/1612 VRB03KT P6SM BKN006
      TEMPO 1513/1515 5SM BR OVC004
     FM151500 VRB03KT P6SM SCT015 SCT080
     FM151800 VRB03KT P6SM -SHRA VCTS OVC035CB
     FM160100 00000KT P6SM BKN035
     FM160600 00000KT 3SM BR SCT003 BKN040
      AMD LTD TO CLD VIS AND WIND=

USA.gov is the U.S. government's official web portal to all federal, state and local government web resources and services.